createdAt,value
2022-08-25T00:02:00.991Z,20.19
2022-08-25T00:04:30.147Z,20.28
2022-08-25T00:07:02.213Z,20.31
2022-08-25T00:09:30.803Z,20.27
2022-08-25T00:11:58.568Z,20.23
2022-08-25T00:14:29.269Z,20.24
2022-08-25T00:16:56.640Z,20.26
2022-08-25T00:19:27.428Z,20.34
2022-08-25T00:21:55.894Z,20.40
2022-08-25T00:24:23.478Z,20.38
2022-08-25T00:26:54.115Z,20.32
2022-08-25T00:29:22.394Z,20.30
2022-08-25T00:31:49.333Z,20.38
2022-08-25T00:34:26.231Z,20.34
2022-08-25T00:36:53.194Z,20.23
2022-08-25T00:39:22.002Z,20.07
2022-08-25T00:41:50.382Z,19.96
2022-08-25T00:44:18.440Z,19.99
2022-08-25T00:46:52.489Z,19.96
2022-08-25T00:49:42.500Z,19.90
2022-08-25T00:52:12.474Z,19.82
2022-08-25T00:54:42.250Z,19.76
2022-08-25T00:57:12.937Z,19.68
2022-08-25T00:59:40.693Z,19.54
2022-08-25T01:02:10.275Z,19.52
2022-08-25T01:04:44.723Z,19.46
2022-08-25T01:07:18.720Z,19.54
2022-08-25T01:09:48.209Z,19.51
2022-08-25T01:12:15.398Z,19.46
2022-08-25T01:14:43.139Z,19.43
2022-08-25T01:17:10.507Z,19.63
2022-08-25T01:19:37.556Z,19.63
2022-08-25T01:22:05.678Z,19.71
2022-08-25T01:24:52.776Z,19.76
2022-08-25T01:27:19.585Z,19.82
2022-08-25T01:29:46.486Z,19.84
2022-08-25T01:32:14.917Z,19.84
2022-08-25T01:34:44.411Z,19.85
2022-08-25T01:37:14.027Z,19.85
2022-08-25T01:39:41.777Z,19.86
2022-08-25T01:42:18.050Z,19.87
2022-08-25T01:44:46.145Z,19.86
2022-08-25T01:47:14.128Z,19.86
2022-08-25T01:49:41.065Z,19.84
2022-08-25T01:52:33.393Z,19.71
2022-08-25T01:55:00.310Z,19.61
2022-08-25T01:57:30.195Z,19.47
2022-08-25T01:59:57.934Z,19.41
2022-08-25T02:02:26.271Z,19.20
2022-08-25T02:04:53.422Z,19.08
2022-08-25T02:07:20.416Z,19.16
2022-08-25T02:09:47.486Z,19.08
2022-08-25T02:12:15.460Z,19.05
2022-08-25T02:14:42.384Z,18.98
2022-08-25T02:17:09.816Z,18.92
2022-08-25T02:19:36.790Z,18.92
2022-08-25T02:22:04.409Z,18.94
2022-08-25T02:24:31.652Z,19.14
2022-08-25T02:26:59.395Z,19.19
2022-08-25T02:29:26.463Z,19.26
2022-08-25T02:31:53.292Z,19.29
2022-08-25T02:34:20.180Z,19.35
2022-08-25T02:36:47.060Z,19.35
2022-08-25T02:39:13.944Z,19.35
2022-08-25T02:41:40.952Z,19.18
2022-08-25T02:44:08.626Z,19.25
2022-08-25T02:46:36.641Z,19.27
2022-08-25T02:49:05.001Z,19.22
2022-08-25T02:51:33.617Z,19.16
2022-08-25T02:54:02.388Z,19.09
2022-08-25T02:56:30.659Z,19.10
2022-08-25T02:58:57.788Z,19.13
2022-08-25T03:01:28.646Z,19.12
2022-08-25T03:03:56.189Z,19.05
2022-08-25T03:06:24.263Z,19.04
2022-08-25T03:08:52.546Z,18.99
2022-08-25T03:11:19.761Z,18.97
2022-08-25T03:13:46.828Z,19.01
2022-08-25T03:16:14.562Z,18.98
2022-08-25T03:18:42.352Z,19.11
2022-08-25T03:21:11.474Z,19.12
2022-08-25T03:23:40.048Z,19.12
2022-08-25T03:26:25.834Z,19.03
2022-08-25T03:28:54.772Z,19.04
2022-08-25T03:31:23.079Z,19.10
2022-08-25T03:33:49.986Z,19.11
2022-08-25T03:36:16.862Z,19.18
2022-08-25T03:38:43.739Z,19.17
2022-08-25T03:41:18.629Z,19.18
2022-08-25T03:43:45.456Z,19.20
2022-08-25T03:46:27.197Z,19.15
2022-08-25T03:48:54.555Z,19.15
2022-08-25T03:51:26.493Z,19.15
2022-08-25T03:53:53.680Z,19.13
2022-08-25T03:56:20.630Z,19.13
2022-08-25T03:58:47.892Z,19.10
2022-08-25T04:01:16.057Z,19.13
2022-08-25T04:03:45.586Z,19.15
2022-08-25T04:06:13.282Z,19.13
2022-08-25T04:08:40.205Z,19.18
2022-08-25T04:11:15.697Z,19.18
2022-08-25T04:13:42.624Z,19.22
2022-08-25T04:16:14.329Z,19.30
2022-08-25T04:18:42.409Z,19.23
2022-08-25T04:21:10.566Z,19.16
2022-08-25T04:23:38.509Z,19.22
2022-08-25T04:26:13.603Z,19.21
2022-08-25T04:28:40.989Z,19.25
2022-08-25T04:31:09.461Z,19.26
2022-08-25T04:33:37.129Z,19.25
2022-08-25T04:36:11.469Z,19.36
2022-08-25T04:38:40.251Z,19.36
2022-08-25T04:41:07.968Z,19.39
2022-08-25T04:43:36.352Z,19.42
2022-08-25T04:46:08.550Z,19.51
2022-08-25T04:48:37.013Z,19.61
2022-08-25T04:51:10.061Z,20.02
2022-08-25T04:53:37.614Z,21.80
2022-08-25T04:56:14.385Z,22.65
2022-08-25T04:58:42.090Z,23.07
2022-08-25T05:01:17.764Z,22.50
2022-08-25T05:03:46.727Z,22.98
2022-08-25T05:06:16.277Z,23.66
2022-08-25T05:08:45.658Z,24.75
2022-08-25T05:11:14.911Z,25.21
2022-08-25T05:13:43.123Z,25.90
2022-08-25T05:16:11.577Z,26.43
2022-08-25T05:18:38.899Z,26.17
2022-08-25T05:21:08.339Z,26.28
2022-08-25T05:23:36.180Z,26.03
2022-08-25T05:26:16.527Z,26.19
2022-08-25T05:28:47.452Z,26.77
2022-08-25T05:31:14.944Z,26.17
2022-08-25T05:33:42.341Z,25.95
2022-08-25T05:36:10.905Z,25.45
2022-08-25T05:38:38.069Z,25.40
2022-08-25T05:41:10.624Z,25.14
2022-08-25T05:43:39.843Z,25.23
2022-08-25T05:46:08.143Z,24.44
2022-08-25T05:48:35.536Z,24.45
2022-08-25T05:51:03.821Z,24.40
2022-08-25T05:53:31.133Z,24.25
2022-08-25T05:56:01.155Z,24.16
2022-08-25T05:58:30.068Z,24.53
2022-08-25T06:00:58.310Z,24.43
2022-08-25T06:03:25.311Z,24.25
2022-08-25T06:05:52.208Z,24.38
2022-08-25T06:08:19.578Z,24.41
2022-08-25T06:10:52.535Z,24.34
2022-08-25T06:13:19.386Z,24.51
2022-08-25T06:15:59.805Z,24.79
2022-08-25T06:18:27.181Z,24.63
2022-08-25T06:20:54.004Z,24.67
2022-08-25T06:23:20.885Z,24.88
2022-08-25T06:25:54.404Z,25.05
2022-08-25T06:28:21.327Z,24.78
2022-08-25T06:30:48.245Z,24.64
2022-08-25T06:33:15.626Z,24.77
2022-08-25T06:35:43.708Z,25.07
2022-08-25T06:38:11.361Z,25.21
2022-08-25T06:40:38.670Z,24.56
2022-08-25T06:43:08.874Z,24.96
2022-08-25T06:45:35.748Z,25.22
2022-08-25T06:48:02.887Z,25.81
2022-08-25T06:50:29.845Z,26.01
2022-08-25T06:52:57.069Z,26.15
2022-08-25T06:55:24.049Z,26.26
2022-08-25T06:57:54.074Z,26.23
2022-08-25T07:00:22.953Z,26.40
2022-08-25T07:02:58.578Z,26.45
2022-08-25T07:05:33.607Z,26.49
2022-08-25T07:08:07.657Z,26.65
2022-08-25T07:10:34.559Z,26.07
2022-08-25T07:13:03.625Z,26.00
2022-08-25T07:15:30.416Z,26.64
2022-08-25T07:17:57.862Z,26.72
2022-08-25T07:22:56.983Z,26.79
2022-08-25T07:25:24.412Z,26.80
2022-08-25T07:27:53.853Z,27.08
2022-08-25T07:30:24.052Z,27.15
2022-08-25T07:32:54.905Z,27.56
2022-08-25T07:35:26.450Z,27.67
2022-08-25T07:38:04.575Z,27.50
2022-08-25T07:40:34.271Z,27.56
2022-08-25T07:43:05.352Z,27.84
2022-08-25T07:45:37.064Z,28.06
2022-08-25T07:48:14.368Z,28.14
2022-08-25T07:50:46.185Z,28.23
2022-08-25T07:53:14.368Z,27.34
2022-08-25T07:55:41.968Z,27.44
2022-08-25T07:58:12.364Z,27.49
2022-08-25T08:00:40.578Z,27.87
2022-08-25T08:03:19.748Z,28.14
2022-08-25T08:05:57.451Z,27.87
2022-08-25T08:08:24.450Z,27.15
2022-08-25T08:11:04.700Z,28.29
2022-08-25T08:13:35.770Z,27.32
2022-08-25T08:16:09.836Z,27.28
2022-08-25T08:18:38.294Z,28.06
2022-08-25T08:21:05.618Z,28.56
2022-08-25T08:23:33.553Z,28.97
2022-08-25T08:26:00.774Z,28.65
2022-08-25T08:28:28.137Z,28.84
2022-08-25T08:30:55.080Z,28.66
2022-08-25T08:33:24.196Z,29.28
2022-08-25T08:35:59.037Z,29.12
2022-08-25T08:38:27.108Z,29.61
2022-08-25T08:42:09.507Z,29.68
2022-08-25T08:44:59.205Z,29.75
2022-08-25T08:47:41.909Z,29.82
2022-08-25T08:50:27.635Z,30.29
2022-08-25T08:53:11.918Z,30.15
2022-08-25T08:55:48.328Z,29.73
2022-08-25T08:58:35.519Z,30.38
2022-08-25T09:01:03.361Z,30.23
2022-08-25T09:03:55.307Z,29.76
2022-08-25T09:06:49.609Z,29.63
2022-08-25T09:09:29.246Z,29.20
2022-08-25T09:11:58.737Z,29.20
2022-08-25T09:14:41.520Z,29.38
2022-08-25T09:17:23.199Z,29.61
2022-08-25T09:19:53.452Z,29.70
2022-08-25T09:22:35.478Z,30.18
2022-08-25T09:25:48.702Z,30.36
2022-08-25T09:28:18.759Z,30.53
2022-08-25T09:31:00.886Z,31.06
2022-08-25T09:33:29.448Z,31.18
2022-08-25T09:35:57.689Z,30.27
2022-08-25T09:38:26.711Z,30.35
2022-08-25T09:41:00.922Z,29.36
2022-08-25T09:43:32.045Z,29.63
2022-08-25T09:46:12.697Z,29.71
2022-08-25T09:48:44.821Z,29.84
2022-08-25T09:51:37.959Z,30.25
2022-08-25T09:54:15.728Z,29.70
2022-08-25T09:56:57.683Z,29.77
2022-08-25T09:59:34.909Z,30.75
2022-08-25T10:02:25.813Z,30.49
2022-08-25T10:04:53.222Z,30.09
2022-08-25T10:07:26.867Z,30.69
2022-08-25T10:10:03.022Z,31.07
2022-08-25T10:12:36.547Z,31.73
2022-08-25T10:15:29.422Z,30.58
2022-08-25T10:18:25.817Z,30.51
2022-08-25T10:21:12.632Z,30.94
2022-08-25T10:23:46.415Z,31.57
2022-08-25T10:26:27.875Z,30.90
2022-08-25T10:29:06.989Z,30.54
2022-08-25T10:31:45.517Z,31.26
2022-08-25T10:34:40.253Z,30.67
2022-08-25T10:37:19.299Z,31.08
2022-08-25T10:40:02.840Z,31.80
2022-08-25T10:42:31.322Z,32.15
2022-08-25T10:45:32.311Z,32.55
2022-08-25T10:48:20.443Z,32.69
2022-08-25T10:51:14.587Z,32.20
2022-08-25T10:53:56.224Z,32.49
2022-08-25T10:56:28.014Z,32.57
2022-08-25T10:59:13.667Z,32.28
2022-08-25T11:01:57.015Z,31.49
2022-08-25T11:04:45.271Z,32.02
2022-08-25T11:07:23.263Z,32.55
2022-08-25T11:09:53.271Z,33.04
2022-08-25T11:12:46.110Z,33.27
2022-08-25T11:15:23.141Z,32.37
2022-08-25T11:18:04.331Z,33.02
2022-08-25T11:21:08.659Z,33.78
2022-08-25T11:23:36.862Z,33.80
2022-08-25T11:26:14.089Z,33.86
2022-08-25T11:29:06.035Z,33.45
2022-08-25T11:31:40.976Z,32.53
2022-08-25T11:34:15.226Z,32.80
2022-08-25T11:36:53.163Z,32.33
2022-08-25T11:39:55.028Z,32.85
2022-08-25T11:42:29.223Z,32.66
2022-08-25T11:45:38.001Z,32.56
2022-08-25T11:48:42.570Z,32.63
2022-08-25T11:51:12.971Z,33.43
2022-08-25T11:53:42.529Z,33.53
2022-08-25T11:56:12.652Z,32.90
2022-08-25T11:58:40.639Z,32.70
2022-08-25T12:01:40.162Z,33.27
2022-08-25T12:04:42.183Z,33.00
2022-08-25T12:07:13.645Z,33.06
2022-08-25T12:09:50.069Z,32.95
2022-08-25T12:12:41.483Z,33.35
2022-08-25T12:15:28.031Z,33.59
2022-08-25T12:18:45.573Z,34.13
2022-08-25T12:21:14.409Z,34.40
2022-08-25T12:24:10.908Z,33.89
2022-08-25T12:26:46.057Z,34.35
2022-08-25T12:29:21.444Z,33.60
2022-08-25T12:31:59.175Z,34.17
2022-08-25T12:34:31.553Z,34.22
2022-08-25T12:37:06.388Z,33.71
2022-08-25T12:39:37.819Z,34.18
2022-08-25T12:42:06.927Z,33.92
2022-08-25T12:44:40.287Z,34.08
2022-08-25T12:47:23.455Z,33.78
2022-08-25T12:49:50.919Z,34.20
2022-08-25T12:52:28.111Z,34.02
2022-08-25T12:54:59.908Z,34.52
2022-08-25T12:57:43.599Z,34.64
2022-08-25T13:00:23.637Z,34.82
2022-08-25T13:03:32.271Z,33.64
2022-08-25T13:06:23.821Z,34.59
2022-08-25T13:09:17.326Z,34.34
2022-08-25T13:11:53.859Z,34.49
2022-08-25T13:17:05.437Z,34.44
2022-08-25T13:19:34.587Z,34.32
2022-08-25T13:22:16.379Z,33.83
2022-08-25T13:24:47.312Z,33.80
2022-08-25T13:27:27.935Z,33.86
2022-08-25T13:29:59.855Z,33.33
2022-08-25T13:32:35.103Z,34.00
2022-08-25T13:35:14.903Z,33.65
2022-08-25T13:37:44.701Z,33.96
2022-08-25T13:40:18.794Z,33.91
2022-08-25T13:42:55.960Z,33.41
2022-08-25T13:45:26.779Z,33.28
2022-08-25T13:47:55.911Z,33.30
2022-08-25T13:50:26.461Z,33.73
2022-08-25T13:53:07.095Z,33.50
2022-08-25T13:55:50.886Z,32.84
2022-08-25T13:58:38.531Z,32.21
2022-08-25T14:01:22.181Z,32.38
2022-08-25T14:04:24.251Z,32.01
2022-08-25T14:07:22.384Z,31.95
2022-08-25T14:10:10.604Z,32.50
2022-08-25T14:12:45.099Z,31.88
2022-08-25T14:15:17.937Z,32.32
2022-08-25T14:17:49.108Z,32.44
2022-08-25T14:20:22.352Z,32.42
2022-08-25T14:22:54.040Z,32.27
2022-08-25T14:25:20.852Z,32.31
2022-08-25T14:28:07.540Z,32.03
2022-08-25T14:30:36.894Z,32.02
2022-08-25T14:33:04.038Z,32.47
2022-08-25T14:35:31.823Z,32.61
2022-08-25T14:37:58.708Z,32.16
2022-08-25T14:40:25.658Z,32.56
2022-08-25T14:42:52.636Z,32.57
2022-08-25T14:45:19.689Z,32.40
2022-08-25T14:47:49.734Z,32.39
2022-08-25T14:50:20.044Z,32.50
2022-08-25T14:52:48.352Z,32.00
2022-08-25T14:55:31.259Z,32.09
2022-08-25T14:57:58.981Z,31.87
2022-08-25T15:00:26.322Z,31.60
2022-08-25T15:02:54.892Z,31.76
2022-08-25T15:05:25.723Z,31.54
2022-08-25T15:08:13.291Z,31.43
2022-08-25T15:10:40.763Z,31.11
2022-08-25T15:13:08.649Z,31.05
2022-08-25T15:15:39.422Z,30.93
2022-08-25T15:18:20.540Z,31.05
2022-08-25T15:20:47.639Z,31.15
2022-08-25T15:23:18.626Z,31.05
2022-08-25T15:25:46.789Z,31.00
2022-08-25T15:28:17.431Z,30.72
2022-08-25T15:30:45.826Z,30.58
2022-08-25T15:33:13.939Z,30.61
2022-08-25T15:35:41.122Z,30.77
2022-08-25T15:38:08.370Z,30.49
2022-08-25T15:40:37.683Z,30.55
2022-08-25T15:43:05.740Z,30.67
2022-08-25T15:45:36.080Z,30.59
2022-08-25T15:48:06.727Z,30.52
2022-08-25T15:50:36.290Z,30.43
2022-08-25T15:53:03.297Z,30.46
2022-08-25T15:55:30.446Z,30.35
2022-08-25T15:58:00.810Z,30.38
2022-08-25T16:00:27.727Z,30.29
2022-08-25T16:02:58.759Z,30.36
2022-08-25T16:05:26.271Z,30.31
2022-08-25T16:07:54.041Z,30.16
2022-08-25T16:10:21.124Z,30.11
2022-08-25T16:12:48.802Z,30.09
2022-08-25T16:15:16.071Z,30.06
2022-08-25T16:17:45.948Z,30.00
2022-08-25T16:20:17.289Z,30.00
2022-08-25T16:22:45.124Z,29.95
2022-08-25T16:25:12.154Z,29.87
2022-08-25T16:27:39.305Z,29.85
2022-08-25T16:30:14.935Z,29.78
2022-08-25T16:32:44.118Z,29.68
2022-08-25T16:35:11.459Z,29.64
2022-08-25T16:37:38.334Z,29.58
2022-08-25T16:40:08.353Z,29.58
2022-08-25T16:42:35.631Z,29.58
2022-08-25T16:45:02.493Z,29.52
2022-08-25T16:47:37.109Z,29.38
2022-08-25T16:50:08.924Z,29.28
2022-08-25T16:52:56.542Z,29.19
2022-08-25T16:55:25.745Z,29.12
2022-08-25T16:57:54.315Z,29.03
2022-08-25T17:00:23.955Z,28.93
2022-08-25T17:02:54.991Z,28.86
2022-08-25T17:05:21.994Z,28.78
2022-08-25T17:08:09.079Z,28.66
2022-08-25T17:10:39.494Z,28.59
2022-08-25T17:13:06.801Z,28.46
2022-08-25T17:15:34.180Z,28.39
2022-08-25T17:18:01.062Z,28.29
2022-08-25T17:20:29.137Z,28.22
2022-08-25T17:22:55.998Z,28.14
2022-08-25T17:25:22.872Z,28.08
2022-08-25T17:27:54.462Z,28.03
2022-08-25T17:30:21.313Z,27.94
2022-08-25T17:32:50.972Z,27.81
2022-08-25T17:35:18.026Z,27.64
2022-08-25T17:37:45.350Z,27.57
2022-08-25T17:40:17.501Z,27.56
2022-08-25T17:42:44.952Z,27.50
2022-08-25T17:45:11.817Z,27.48
2022-08-25T17:47:38.733Z,27.44
2022-08-25T17:50:06.180Z,27.39
2022-08-25T17:52:33.371Z,27.32
2022-08-25T17:55:00.179Z,27.26
2022-08-25T17:57:27.491Z,27.17
2022-08-25T17:59:54.420Z,27.13
2022-08-25T18:02:21.314Z,27.04
2022-08-25T18:04:48.678Z,26.97
2022-08-25T18:07:15.516Z,26.95
2022-08-25T18:09:44.129Z,26.88
2022-08-25T18:12:12.594Z,26.86
2022-08-25T18:14:39.455Z,26.82
2022-08-25T18:17:06.397Z,26.70
2022-08-25T18:19:33.629Z,26.48
2022-08-25T18:22:04.307Z,26.35
2022-08-25T18:24:31.310Z,26.19
2022-08-25T18:26:58.914Z,26.13
2022-08-25T18:29:26.170Z,26.05
2022-08-25T18:31:58.325Z,26.03
2022-08-25T18:34:27.293Z,25.98
2022-08-25T18:36:58.790Z,25.90
2022-08-25T18:39:44.179Z,25.78
2022-08-25T18:42:11.296Z,25.70
2022-08-25T18:44:38.355Z,25.41
2022-08-25T18:47:07.473Z,25.51
2022-08-25T18:49:35.194Z,25.41
2022-08-25T18:52:02.044Z,25.21
2022-08-25T18:54:28.855Z,25.27
2022-08-25T18:56:57.206Z,25.31
2022-08-25T18:59:24.328Z,25.20
2022-08-25T19:01:53.743Z,25.21
2022-08-25T19:04:20.810Z,25.25
2022-08-25T19:06:55.492Z,25.06
2022-08-25T19:09:22.572Z,24.97
2022-08-25T19:11:49.500Z,24.99
2022-08-25T19:14:16.720Z,24.96
2022-08-25T19:16:45.410Z,24.84
2022-08-25T19:19:13.590Z,24.78
2022-08-25T19:21:41.970Z,24.62
2022-08-25T19:24:11.588Z,24.62
2022-08-25T19:26:39.638Z,24.65
2022-08-25T19:29:10.908Z,24.66
2022-08-25T19:31:39.285Z,24.71
2022-08-25T19:34:07.327Z,24.69
2022-08-25T19:36:34.224Z,24.64
2022-08-25T19:39:01.519Z,24.63
2022-08-25T19:41:31.223Z,24.51
2022-08-25T19:43:59.459Z,24.46
2022-08-25T19:46:32.757Z,24.30
2022-08-25T19:49:09.019Z,24.21
2022-08-25T19:51:45.274Z,24.01
2022-08-25T19:54:14.449Z,23.93
2022-08-25T19:56:43.947Z,23.88
2022-08-25T19:59:40.698Z,23.83
2022-08-25T20:02:19.238Z,23.94
2022-08-25T20:04:49.245Z,23.93
2022-08-25T20:07:19.001Z,23.89
2022-08-25T20:09:46.042Z,23.92
2022-08-25T20:14:46.781Z,23.80
2022-08-25T20:17:24.026Z,23.68
2022-08-25T20:19:55.449Z,23.84
2022-08-25T20:22:26.114Z,23.80
2022-08-25T20:24:58.090Z,23.77
2022-08-25T20:27:47.032Z,23.71
2022-08-25T20:30:18.304Z,23.79
2022-08-25T20:32:45.855Z,23.78
2022-08-25T20:35:14.374Z,23.74
2022-08-25T20:37:44.135Z,23.66
2022-08-25T20:40:13.626Z,23.62
2022-08-25T20:42:40.934Z,23.68
2022-08-25T20:45:11.256Z,23.59
2022-08-25T20:47:38.266Z,23.54
2022-08-25T20:50:07.410Z,23.47
2022-08-25T20:52:34.627Z,23.45
2022-08-25T20:55:01.978Z,23.46
2022-08-25T20:57:28.911Z,23.43
2022-08-25T20:59:56.982Z,23.47
2022-08-25T21:02:24.417Z,23.41
2022-08-25T21:04:52.150Z,23.37
2022-08-25T21:07:19.916Z,23.34
2022-08-25T21:09:47.854Z,23.30
2022-08-25T21:12:14.908Z,23.29
2022-08-25T21:14:43.848Z,23.40
2022-08-25T21:17:15.454Z,23.30
2022-08-25T21:22:18.587Z,23.23
2022-08-25T21:24:45.986Z,23.22
2022-08-25T21:27:13.329Z,23.09
2022-08-25T21:29:50.678Z,23.06
2022-08-25T21:32:22.288Z,22.98
2022-08-25T21:34:56.230Z,22.98
2022-08-25T21:37:24.202Z,22.81
2022-08-25T21:39:51.936Z,22.81
2022-08-25T21:42:20.528Z,22.84
2022-08-25T21:44:47.448Z,22.80
2022-08-25T21:47:14.261Z,22.71
2022-08-25T21:49:41.558Z,22.62
2022-08-25T21:52:08.457Z,22.62
2022-08-25T21:54:35.379Z,22.61
2022-08-25T21:57:04.417Z,22.64
2022-08-25T21:59:33.979Z,22.62
2022-08-25T22:02:03.916Z,22.66
2022-08-25T22:04:32.015Z,22.58
2022-08-25T22:06:59.598Z,22.52
2022-08-25T22:09:28.258Z,22.54
2022-08-25T22:11:55.923Z,22.51
2022-08-25T22:14:23.853Z,22.45
2022-08-25T22:16:54.169Z,22.47
2022-08-25T22:19:21.559Z,22.39
2022-08-25T22:21:50.978Z,22.46
2022-08-25T22:24:18.886Z,22.43
2022-08-25T22:26:47.721Z,22.35
2022-08-25T22:29:25.185Z,22.43
2022-08-25T22:31:59.641Z,22.33
2022-08-25T22:34:32.673Z,22.32
2022-08-25T22:37:04.604Z,22.44
2022-08-25T22:39:34.283Z,22.44
2022-08-25T22:42:02.831Z,22.39
2022-08-25T22:44:30.104Z,22.26
2022-08-25T22:46:57.013Z,22.28
2022-08-25T22:49:23.894Z,22.26
2022-08-25T22:51:51.109Z,22.24
2022-08-25T22:54:20.609Z,22.31
2022-08-25T22:56:47.437Z,22.29
2022-08-25T22:59:14.646Z,22.30
2022-08-25T23:01:43.857Z,22.24
2022-08-25T23:04:11.095Z,22.20
2022-08-25T23:06:38.267Z,22.26
2022-08-25T23:09:07.393Z,22.30
2022-08-25T23:11:35.694Z,22.09
2022-08-25T23:14:08.312Z,22.03
2022-08-25T23:16:35.425Z,22.11
2022-08-25T23:19:02.302Z,22.10
2022-08-25T23:21:47.747Z,21.93
2022-08-25T23:24:29.917Z,21.84
2022-08-25T23:27:02.937Z,21.78
2022-08-25T23:29:31.846Z,21.82
2022-08-25T23:31:58.963Z,21.85
2022-08-25T23:34:26.302Z,21.95
2022-08-25T23:36:53.445Z,22.00
2022-08-25T23:39:21.801Z,21.88
2022-08-25T23:41:49.895Z,21.83
2022-08-25T23:44:18.763Z,21.88
2022-08-25T23:46:47.191Z,21.97
2022-08-25T23:49:18.381Z,21.98
2022-08-25T23:51:47.471Z,21.93
2022-08-25T23:54:14.771Z,22.02
2022-08-25T23:56:44.842Z,21.91
2022-08-25T23:59:24.770Z,21.97
